Overview Statistics Trail Chart Weather Telemetry Raw packets
 

This is the latest recevied weather packets stored in our database for station/object W4UWO. If no packets are shown the sender has not sent any weather packets the latest 10 day(s).

<< 62 63 64 65 66 67 68 >>
Time Temp. Humidity Pressure Rain* Wind** Luminosity Snow
1788188850 31.11° C 61% 1022.2 hPa 0 mm - 596 W/m² -
1788188546 30.56° C 61% 1022.2 hPa 0 mm - 603 W/m² -
1788188245 30.56° C 62% 1022.1 hPa 0 mm - 570 W/m² -
1788187941 31.11° C 60% 1022.2 hPa 0 mm - 550 W/m² -
1788187637 31.11° C 60% 1022.1 hPa 0 mm - 539 W/m² -
1788187333 30° C 63% 1022 hPa 0 mm - 522 W/m² -
1788187032 30° C 64% 1022 hPa 0 mm - 507 W/m² -
1788186728 30° C 65% 1021.9 hPa 0 mm - 495 W/m² -
1788186424 29.44° C 66% 1021.9 hPa 0 mm - 477 W/m² -
1788186119 29.44° C 67% 1021.9 hPa 0 mm - 459 W/m² -
1788185818 28.89° C 67% 1021.9 hPa 0 mm - 442 W/m² -
1788185513 28.89° C 68% 1021.8 hPa 0 mm - 425 W/m² -
1788185212 28.89° C 67% 1022.1 hPa 0 mm - 410 W/m² -
1788184907 29.44° C 67% 1022 hPa 0 mm - 391 W/m² -
1788184605 30° C 67% 1021.8 hPa 0 mm - 94 W/m² -
1788184301 28.89° C 69% 1021.8 hPa 0 mm - 354 W/m² -
1788184007 28.89° C 68% 1021.8 hPa 0 mm - 336 W/m² -
1788183692 28.89° C 70% 1021.8 hPa 0 mm - 319 W/m² -
1788183391 28.33° C 72% 1021.8 hPa 0 mm - 303 W/m² -
1788183086 27.78° C 72% 1021.8 hPa 0 mm - 283 W/m² -
1788182782 27.78° C 74% 1021.7 hPa 0 mm - 267 W/m² -
1788182481 28.33° C 72% 1021.6 hPa 0 mm - 250 W/m² -
1788182176 27.78° C 73% 1021.6 hPa 0 mm - 234 W/m² -
1788181873 26.67° C 77% 1021.7 hPa 0 mm - 217 W/m² -
1788181567 26.67° C 77% 1021.7 hPa 0 mm - 200 W/m² -

* Rain latest hour (hover to see other rain measurements)
** Current wind speed in m/s (hover to see current wind gust speed)